sensor_id;sensor_type;location;lat;lon;timestamp;pressure;altitude;pressure_sealevel;temperature;humidity
65872;BME280;52653;50.080;21.992;2024-02-21T00:01:02;99637.55;;;5.10;100.00
65872;BME280;52653;50.080;21.992;2024-02-21T00:03:47;99640.66;;;5.09;100.00
65872;BME280;52653;50.080;21.992;2024-02-21T00:06:20;99641.34;;;5.09;100.00
65872;BME280;52653;50.080;21.992;2024-02-21T00:08:52;99641.48;;;5.08;100.00
65872;BME280;52653;50.080;21.992;2024-02-21T00:11:25;99639.73;;;5.08;100.00
65872;BME280;52653;50.080;21.992;2024-02-21T00:13:58;99638.16;;;5.08;100.00
65872;BME280;52653;50.080;21.992;2024-02-21T00:16:30;99637.99;;;5.08;100.00
65872;BME280;52653;50.080;21.992;2024-02-21T00:19:03;99635.73;;;5.07;100.00
65872;BME280;52653;50.080;21.992;2024-02-21T00:21:36;99637.19;;;5.09;100.00
65872;BME280;52653;50.080;21.992;2024-02-21T00:24:09;99636.52;;;5.11;100.00
65872;BME280;52653;50.080;21.992;2024-02-21T00:26:41;99633.91;;;5.10;100.00
65872;BME280;52653;50.080;21.992;2024-02-21T00:29:14;99633.58;;;5.11;100.00
65872;BME280;52653;50.080;21.992;2024-02-21T00:31:47;99630.27;;;5.11;100.00
65872;BME280;52653;50.080;21.992;2024-02-21T00:34:20;99630.27;;;5.11;100.00
65872;BME280;52653;50.080;21.992;2024-02-21T00:36:53;99629.23;;;5.11;100.00
65872;BME280;52653;50.080;21.992;2024-02-21T00:39:26;99632.66;;;5.09;100.00
65872;BME280;52653;50.080;21.992;2024-02-21T00:42:01;99632.77;;;5.08;100.00
65872;BME280;52653;50.080;21.992;2024-02-21T00:44:34;99627.33;;;5.04;100.00
65872;BME280;52653;50.080;21.992;2024-02-21T00:47:07;99624.48;;;5.01;100.00
65872;BME280;52653;50.080;21.992;2024-02-21T00:49:39;99625.59;;;4.96;100.00
65872;BME280;52653;50.080;21.992;2024-02-21T00:52:12;99624.60;;;4.90;100.00
65872;BME280;52653;50.080;21.992;2024-02-21T00:54:45;99626.91;;;4.84;100.00
65872;BME280;52653;50.080;21.992;2024-02-21T00:57:24;99632.17;;;4.80;100.00
65872;BME280;52653;50.080;21.992;2024-02-21T00:59:57;99633.84;;;4.75;100.00
65872;BME280;52653;50.080;21.992;2024-02-21T01:02:30;99630.48;;;4.72;100.00
65872;BME280;52653;50.080;21.992;2024-02-21T01:05:04;99638.25;;;4.70;100.00
65872;BME280;52653;50.080;21.992;2024-02-21T01:07:36;99639.79;;;4.70;100.00
65872;BME280;52653;50.080;21.992;2024-02-21T01:10:10;99641.70;;;4.70;100.00
65872;BME280;52653;50.080;21.992;2024-02-21T01:12:43;99637.92;;;4.71;100.00
65872;BME280;52653;50.080;21.992;2024-02-21T01:15:15;99641.09;;;4.73;100.00
65872;BME280;52653;50.080;21.992;2024-02-21T01:17:48;99640.80;;;4.76;100.00
65872;BME280;52653;50.080;21.992;2024-02-21T01:20:26;99639.80;;;4.79;100.00
65872;BME280;52653;50.080;21.992;2024-02-21T01:22:58;99639.34;;;4.81;100.00
65872;BME280;52653;50.080;21.992;2024-02-21T01:25:32;99637.84;;;4.83;100.00
65872;BME280;52653;50.080;21.992;2024-02-21T01:28:05;99637.20;;;4.86;100.00
65872;BME280;52653;50.080;21.992;2024-02-21T01:30:37;99632.38;;;4.88;100.00
65872;BME280;52653;50.080;21.992;2024-02-21T01:33:10;99629.12;;;4.90;100.00
65872;BME280;52653;50.080;21.992;2024-02-21T01:35:43;99627.08;;;4.92;100.00
65872;BME280;52653;50.080;21.992;2024-02-21T01:38:15;99628.14;;;4.93;100.00
65872;BME280;52653;50.080;21.992;2024-02-21T01:40:48;99628.68;;;4.95;100.00
65872;BME280;52653;50.080;21.992;2024-02-21T01:43:32;99627.82;;;4.95;100.00
65872;BME280;52653;50.080;21.992;2024-02-21T01:46:05;99631.16;;;4.96;100.00
65872;BME280;52653;50.080;21.992;2024-02-21T01:48:38;99627.53;;;4.96;100.00
65872;BME280;52653;50.080;21.992;2024-02-21T01:51:11;99626.84;;;4.97;100.00
65872;BME280;52653;50.080;21.992;2024-02-21T01:53:46;99627.38;;;4.98;100.00
65872;BME280;52653;50.080;21.992;2024-02-21T01:56:18;99621.83;;;4.98;100.00
65872;BME280;52653;50.080;21.992;2024-02-21T01:58:52;99621.15;;;4.99;100.00
65872;BME280;52653;50.080;21.992;2024-02-21T02:01:24;99624.63;;;4.99;100.00
65872;BME280;52653;50.080;21.992;2024-02-21T02:03:58;99624.81;;;5.00;100.00
65872;BME280;52653;50.080;21.992;2024-02-21T02:06:32;99625.33;;;4.99;100.00
65872;BME280;52653;50.080;21.992;2024-02-21T02:09:04;99621.33;;;4.99;100.00
65872;BME280;52653;50.080;21.992;2024-02-21T02:11:37;99622.71;;;4.99;100.00
65872;BME280;52653;50.080;21.992;2024-02-21T02:14:09;99623.73;;;4.98;100.00
65872;BME280;52653;50.080;21.992;2024-02-21T02:16:42;99623.73;;;4.98;100.00
65872;BME280;52653;50.080;21.992;2024-02-21T02:19:17;99631.02;;;4.97;100.00
65872;BME280;52653;50.080;21.992;2024-02-21T02:21:56;99624.23;;;4.96;100.00
65872;BME280;52653;50.080;21.992;2024-02-21T02:24:32;99625.75;;;4.95;100.00
65872;BME280;52653;50.080;21.992;2024-02-21T02:27:04;99622.42;;;4.95;100.00
65872;BME280;52653;50.080;21.992;2024-02-21T02:29:37;99626.60;;;4.95;100.00
65872;BME280;52653;50.080;21.992;2024-02-21T02:32:09;99626.96;;;4.95;100.00
65872;BME280;52653;50.080;21.992;2024-02-21T02:34:42;99626.27;;;4.95;100.00
65872;BME280;52653;50.080;21.992;2024-02-21T02:37:15;99626.94;;;4.94;100.00
65872;BME280;52653;50.080;21.992;2024-02-21T02:39:47;99626.90;;;4.93;100.00
65872;BME280;52653;50.080;21.992;2024-02-21T02:42:20;99628.44;;;4.91;100.00
65872;BME280;52653;50.080;21.992;2024-02-21T02:44:53;99627.38;;;4.90;100.00
65872;BME280;52653;50.080;21.992;2024-02-21T02:47:25;99629.42;;;4.88;100.00
65872;BME280;52653;50.080;21.992;2024-02-21T02:49:57;99632.71;;;4.87;100.00
65872;BME280;52653;50.080;21.992;2024-02-21T02:52:30;99637.34;;;4.84;100.00
65872;BME280;52653;50.080;21.992;2024-02-21T02:55:06;99637.13;;;4.83;100.00
65872;BME280;52653;50.080;21.992;2024-02-21T02:57:39;99637.78;;;4.82;100.00
65872;BME280;52653;50.080;21.992;2024-02-21T03:00:16;99636.72;;;4.81;100.00
65872;BME280;52653;50.080;21.992;2024-02-21T03:02:50;99636.01;;;4.80;100.00
65872;BME280;52653;50.080;21.992;2024-02-21T03:05:23;99636.52;;;4.79;100.00
65872;BME280;52653;50.080;21.992;2024-02-21T03:07:57;99635.09;;;4.78;100.00
65872;BME280;52653;50.080;21.992;2024-02-21T03:10:30;99633.67;;;4.77;100.00
65872;BME280;52653;50.080;21.992;2024-02-21T03:13:03;99633.84;;;4.76;100.00
65872;BME280;52653;50.080;21.992;2024-02-21T03:15:36;99634.67;;;4.74;100.00
65872;BME280;52653;50.080;21.992;2024-02-21T03:18:09;99633.97;;;4.73;100.00
65872;BME280;52653;50.080;21.992;2024-02-21T03:20:42;99633.91;;;4.71;100.00
65872;BME280;52653;50.080;21.992;2024-02-21T03:23:14;99639.41;;;4.69;100.00
65872;BME280;52653;50.080;21.992;2024-02-21T03:25:47;99639.04;;;4.68;100.00
65872;BME280;52653;50.080;21.992;2024-02-21T03:28:20;99637.08;;;4.65;100.00
65872;BME280;52653;50.080;21.992;2024-02-21T03:30:53;99643.44;;;4.62;100.00
65872;BME280;52653;50.080;21.992;2024-02-21T03:33:25;99642.40;;;4.55;100.00
65872;BME280;52653;50.080;21.992;2024-02-21T03:35:58;99640.30;;;4.47;100.00
65872;BME280;52653;50.080;21.992;2024-02-21T03:38:30;99640.09;;;4.38;100.00
65872;BME280;52653;50.080;21.992;2024-02-21T03:41:03;99641.91;;;4.27;100.00
65872;BME280;52653;50.080;21.992;2024-02-21T03:43:37;99637.99;;;4.16;100.00
65872;BME280;52653;50.080;21.992;2024-02-21T03:46:09;99642.83;;;4.08;100.00
65872;BME280;52653;50.080;21.992;2024-02-21T03:48:42;99643.38;;;4.02;100.00
65872;BME280;52653;50.080;21.992;2024-02-21T03:51:14;99649.52;;;3.98;100.00
65872;BME280;52653;50.080;21.992;2024-02-21T03:53:46;99642.44;;;3.93;100.00
65872;BME280;52653;50.080;21.992;2024-02-21T03:56:18;99646.95;;;3.86;100.00
65872;BME280;52653;50.080;21.992;2024-02-21T03:58:51;99645.23;;;3.80;100.00
65872;BME280;52653;50.080;21.992;2024-02-21T04:01:23;99652.38;;;3.74;100.00
65872;BME280;52653;50.080;21.992;2024-02-21T04:03:56;99650.98;;;3.68;100.00
65872;BME280;52653;50.080;21.992;2024-02-21T04:06:28;99657.55;;;3.61;100.00
65872;BME280;52653;50.080;21.992;2024-02-21T04:09:00;99656.30;;;3.53;100.00
65872;BME280;52653;50.080;21.992;2024-02-21T04:11:32;99655.94;;;3.46;100.00
65872;BME280;52653;50.080;21.992;2024-02-21T04:14:05;99657.45;;;3.38;100.00
65872;BME280;52653;50.080;21.992;2024-02-21T04:16:38;99652.20;;;3.31;100.00
65872;BME280;52653;50.080;21.992;2024-02-21T04:19:11;99653.55;;;3.23;100.00
65872;BME280;52653;50.080;21.992;2024-02-21T04:21:43;99653.04;;;3.17;100.00
65872;BME280;52653;50.080;21.992;2024-02-21T04:24:15;99652.66;;;3.11;100.00
65872;BME280;52653;50.080;21.992;2024-02-21T04:26:48;99655.91;;;3.03;100.00
65872;BME280;52653;50.080;21.992;2024-02-21T04:29:20;99654.18;;;2.97;100.00
65872;BME280;52653;50.080;21.992;2024-02-21T04:31:52;99651.27;;;2.92;100.00
65872;BME280;52653;50.080;21.992;2024-02-21T04:34:25;99649.92;;;2.89;100.00
65872;BME280;52653;50.080;21.992;2024-02-21T04:36:57;99650.39;;;2.87;100.00
65872;BME280;52653;50.080;21.992;2024-02-21T04:39:29;99645.19;;;2.86;100.00
65872;BME280;52653;50.080;21.992;2024-02-21T04:42:02;99646.93;;;2.86;100.00
65872;BME280;52653;50.080;21.992;2024-02-21T04:44:34;99651.10;;;2.87;100.00
65872;BME280;52653;50.080;21.992;2024-02-21T04:47:06;99646.98;;;2.88;100.00
65872;BME280;52653;50.080;21.992;2024-02-21T04:49:39;99649.45;;;2.90;100.00
65872;BME280;52653;50.080;21.992;2024-02-21T04:52:14;99645.14;;;2.91;100.00
65872;BME280;52653;50.080;21.992;2024-02-21T04:54:46;99644.17;;;2.92;100.00
65872;BME280;52653;50.080;21.992;2024-02-21T04:57:19;99645.71;;;2.92;100.00
65872;BME280;52653;50.080;21.992;2024-02-21T04:59:52;99644.46;;;2.91;100.00
65872;BME280;52653;50.080;21.992;2024-02-21T05:02:24;99644.38;;;2.88;100.00
65872;BME280;52653;50.080;21.992;2024-02-21T05:04:57;99644.82;;;2.86;100.00
65872;BME280;52653;50.080;21.992;2024-02-21T05:07:30;99646.29;;;2.82;100.00
65872;BME280;52653;50.080;21.992;2024-02-21T05:10:02;99643.52;;;2.78;100.00
65872;BME280;52653;50.080;21.992;2024-02-21T05:12:35;99642.73;;;2.74;100.00
65872;BME280;52653;50.080;21.992;2024-02-21T05:15:08;99640.88;;;2.69;100.00
65872;BME280;52653;50.080;21.992;2024-02-21T05:17:40;99639.31;;;2.64;100.00
65872;BME280;52653;50.080;21.992;2024-02-21T05:20:14;99645.58;;;2.59;100.00
65872;BME280;52653;50.080;21.992;2024-02-21T05:22:46;99642.30;;;2.54;100.00
65872;BME280;52653;50.080;21.992;2024-02-21T05:25:19;99645.23;;;2.49;100.00
65872;BME280;52653;50.080;21.992;2024-02-21T05:27:52;99648.05;;;2.44;100.00
65872;BME280;52653;50.080;21.992;2024-02-21T05:30:26;99650.83;;;2.40;100.00
65872;BME280;52653;50.080;21.992;2024-02-21T05:32:58;99647.31;;;2.38;100.00
65872;BME280;52653;50.080;21.992;2024-02-21T05:35:31;99645.91;;;2.37;100.00
65872;BME280;52653;50.080;21.992;2024-02-21T05:38:06;99638.98;;;2.37;100.00
65872;BME280;52653;50.080;21.992;2024-02-21T05:40:43;99638.25;;;2.35;100.00
65872;BME280;52653;50.080;21.992;2024-02-21T05:43:16;99645.84;;;2.34;100.00
65872;BME280;52653;50.080;21.992;2024-02-21T05:45:48;99642.01;;;2.34;100.00
65872;BME280;52653;50.080;21.992;2024-02-21T05:48:21;99638.16;;;2.32;100.00
65872;BME280;52653;50.080;21.992;2024-02-21T05:50:54;99640.58;;;2.32;100.00
65872;BME280;52653;50.080;21.992;2024-02-21T05:53:26;99640.05;;;2.32;100.00
65872;BME280;52653;50.080;21.992;2024-02-21T05:55:58;99642.63;;;2.31;100.00
65872;BME280;52653;50.080;21.992;2024-02-21T05:58:33;99642.63;;;2.31;100.00
65872;BME280;52653;50.080;21.992;2024-02-21T06:01:05;99641.45;;;2.32;100.00
65872;BME280;52653;50.080;21.992;2024-02-21T06:03:37;99639.39;;;2.33;100.00
65872;BME280;52653;50.080;21.992;2024-02-21T06:06:10;99639.77;;;2.34;100.00
65872;BME280;52653;50.080;21.992;2024-02-21T06:08:42;99641.23;;;2.37;100.00
65872;BME280;52653;50.080;21.992;2024-02-21T06:11:14;99644.85;;;2.42;100.00
65872;BME280;52653;50.080;21.992;2024-02-21T06:13:47;99642.47;;;2.49;100.00
65872;BME280;52653;50.080;21.992;2024-02-21T06:16:19;99640.30;;;2.56;100.00
65872;BME280;52653;50.080;21.992;2024-02-21T06:18:51;99639.30;;;2.64;100.00
65872;BME280;52653;50.080;21.992;2024-02-21T06:21:24;99642.53;;;2.73;100.00
65872;BME280;52653;50.080;21.992;2024-02-21T06:24:00;99645.70;;;2.80;100.00
65872;BME280;52653;50.080;21.992;2024-02-21T06:26:33;99644.48;;;2.86;100.00
65872;BME280;52653;50.080;21.992;2024-02-21T06:29:05;99644.31;;;2.92;100.00
65872;BME280;52653;50.080;21.992;2024-02-21T06:31:37;99640.91;;;2.99;100.00
65872;BME280;52653;50.080;21.992;2024-02-21T06:34:10;99637.06;;;3.10;100.00
65872;BME280;52653;50.080;21.992;2024-02-21T06:36:42;99635.68;;;3.16;100.00
65872;BME280;52653;50.080;21.992;2024-02-21T06:39:14;99635.85;;;3.22;100.00
65872;BME280;52653;50.080;21.992;2024-02-21T06:41:47;99638.75;;;3.27;100.00
65872;BME280;52653;50.080;21.992;2024-02-21T06:44:22;99641.01;;;3.33;100.00
65872;BME280;52653;50.080;21.992;2024-02-21T06:46:54;99641.84;;;3.39;100.00
65872;BME280;52653;50.080;21.992;2024-02-21T06:49:27;99643.07;;;3.44;100.00
65872;BME280;52653;50.080;21.992;2024-02-21T06:51:59;99639.77;;;3.51;100.00
65872;BME280;52653;50.080;21.992;2024-02-21T06:54:32;99638.40;;;3.58;100.00
65872;BME280;52653;50.080;21.992;2024-02-21T06:57:04;99641.34;;;3.65;100.00
65872;BME280;52653;50.080;21.992;2024-02-21T06:59:37;99642.47;;;3.74;100.00
65872;BME280;52653;50.080;21.992;2024-02-21T07:02:09;99643.20;;;3.82;100.00
65872;BME280;52653;50.080;21.992;2024-02-21T07:04:41;99636.81;;;3.90;100.00
65872;BME280;52653;50.080;21.992;2024-02-21T07:07:14;99635.66;;;4.00;100.00
65872;BME280;52653;50.080;21.992;2024-02-21T07:09:47;99636.10;;;4.09;100.00
65872;BME280;52653;50.080;21.992;2024-02-21T07:12:19;99631.83;;;4.20;100.00
65872;BME280;52653;50.080;21.992;2024-02-21T07:14:54;99629.30;;;4.30;100.00
65872;BME280;52653;50.080;21.992;2024-02-21T07:17:26;99631.15;;;4.42;100.00
65872;BME280;52653;50.080;21.992;2024-02-21T07:19:59;99628.14;;;4.54;99.95
65872;BME280;52653;50.080;21.992;2024-02-21T07:22:32;99620.98;;;4.68;99.91
65872;BME280;52653;50.080;21.992;2024-02-21T07:25:06;99615.91;;;4.82;99.76
65872;BME280;52653;50.080;21.992;2024-02-21T07:27:38;99617.98;;;4.97;99.50
65872;BME280;52653;50.080;21.992;2024-02-21T07:30:11;99613.11;;;5.14;99.12
65872;BME280;52653;50.080;21.992;2024-02-21T07:32:50;99615.12;;;5.27;98.26
65872;BME280;52653;50.080;21.992;2024-02-21T07:35:24;99617.98;;;5.41;96.79
65872;BME280;52653;50.080;21.992;2024-02-21T07:37:56;99613.39;;;5.55;96.06
65872;BME280;52653;50.080;21.992;2024-02-21T07:40:29;99609.27;;;5.67;95.32
65872;BME280;52653;50.080;21.992;2024-02-21T07:43:01;99611.68;;;5.75;94.45
65872;BME280;52653;50.080;21.992;2024-02-21T07:45:36;99612.14;;;5.82;94.17
65872;BME280;52653;50.080;21.992;2024-02-21T07:48:10;99612.28;;;5.88;94.44
65872;BME280;52653;50.080;21.992;2024-02-21T07:50:42;99610.70;;;5.98;94.47
65872;BME280;52653;50.080;21.992;2024-02-21T07:53:16;99606.95;;;6.02;93.68
65872;BME280;52653;50.080;21.992;2024-02-21T07:55:48;99607.77;;;6.08;93.69
65872;BME280;52653;50.080;21.992;2024-02-21T07:58:21;99608.45;;;6.19;93.24
65872;BME280;52653;50.080;21.992;2024-02-21T08:00:53;99609.77;;;6.35;93.78
65872;BME280;52653;50.080;21.992;2024-02-21T08:03:28;99609.67;;;6.52;93.38
65872;BME280;52653;50.080;21.992;2024-02-21T08:06:00;99613.80;;;6.71;93.69
65872;BME280;52653;50.080;21.992;2024-02-21T08:08:33;99609.12;;;6.87;92.41
65872;BME280;52653;50.080;21.992;2024-02-21T08:11:05;99614.52;;;6.99;91.54
65872;BME280;52653;50.080;21.992;2024-02-21T08:13:38;99613.21;;;7.20;91.58
65872;BME280;52653;50.080;21.992;2024-02-21T08:16:11;99610.48;;;7.40;88.64
65872;BME280;52653;50.080;21.992;2024-02-21T08:18:45;99611.42;;;7.61;86.15
65872;BME280;52653;50.080;21.992;2024-02-21T08:21:17;99615.39;;;7.74;83.76
65872;BME280;52653;50.080;21.992;2024-02-21T08:23:49;99613.59;;;7.86;85.66
65872;BME280;52653;50.080;21.992;2024-02-21T08:26:22;99615.76;;;7.94;84.13
65872;BME280;52653;50.080;21.992;2024-02-21T08:28:54;99616.30;;;7.95;82.05
65872;BME280;52653;50.080;21.992;2024-02-21T08:31:29;99612.88;;;7.85;80.95
65872;BME280;52653;50.080;21.992;2024-02-21T08:34:03;99609.50;;;7.78;81.26
65872;BME280;52653;50.080;21.992;2024-02-21T08:36:36;99610.23;;;7.82;81.35
65872;BME280;52653;50.080;21.992;2024-02-21T08:39:08;99609.61;;;7.90;82.24
65872;BME280;52653;50.080;21.992;2024-02-21T08:41:42;99608.46;;;7.98;83.26
65872;BME280;52653;50.080;21.992;2024-02-21T08:44:30;99603.11;;;8.05;83.56
65872;BME280;52653;50.080;21.992;2024-02-21T08:47:23;99598.72;;;8.02;82.58
65872;BME280;52653;50.080;21.992;2024-02-21T08:49:55;99598.48;;;7.95;82.34
65872;BME280;52653;50.080;21.992;2024-02-21T08:52:37;99596.39;;;7.76;81.21
65872;BME280;52653;50.080;21.992;2024-02-21T08:55:24;99593.77;;;7.60;82.66
65872;BME280;52653;50.080;21.992;2024-02-21T08:58:07;99596.48;;;7.51;83.02
65872;BME280;52653;50.080;21.992;2024-02-21T09:00:40;99597.46;;;7.47;82.98
65872;BME280;52653;50.080;21.992;2024-02-21T09:03:13;99595.89;;;7.47;82.88
65872;BME280;52653;50.080;21.992;2024-02-21T09:05:55;99595.10;;;7.53;83.45
65872;BME280;52653;50.080;21.992;2024-02-21T09:08:27;99587.99;;;7.58;82.93
65872;BME280;52653;50.080;21.992;2024-02-21T09:11:20;99588.11;;;7.70;82.05
65872;BME280;52653;50.080;21.992;2024-02-21T09:13:53;99592.80;;;7.85;81.44
65872;BME280;52653;50.080;21.992;2024-02-21T09:16:34;99580.94;;;8.06;81.61
65872;BME280;52653;50.080;21.992;2024-02-21T09:19:20;99582.01;;;8.30;81.02
65872;BME280;52653;50.080;21.992;2024-02-21T09:21:53;99579.26;;;8.35;79.01
65872;BME280;52653;50.080;21.992;2024-02-21T09:24:25;99575.52;;;8.26;78.07
65872;BME280;52653;50.080;21.992;2024-02-21T09:26:57;99578.60;;;8.20;78.07
65872;BME280;52653;50.080;21.992;2024-02-21T09:29:33;99574.77;;;8.22;78.26
65872;BME280;52653;50.080;21.992;2024-02-21T09:32:08;99570.27;;;8.28;79.07
65872;BME280;52653;50.080;21.992;2024-02-21T09:34:40;99573.44;;;8.30;78.71
65872;BME280;52653;50.080;21.992;2024-02-21T09:37:16;99575.17;;;8.27;78.92
65872;BME280;52653;50.080;21.992;2024-02-21T09:39:58;99579.29;;;8.17;78.26
65872;BME280;52653;50.080;21.992;2024-02-21T09:42:57;99577.82;;;8.12;78.10
65872;BME280;52653;50.080;21.992;2024-02-21T09:45:34;99580.92;;;8.26;78.53
65872;BME280;52653;50.080;21.992;2024-02-21T09:48:19;99575.34;;;8.47;77.70
65872;BME280;52653;50.080;21.992;2024-02-21T09:50:54;99574.40;;;8.65;77.66
65872;BME280;52653;50.080;21.992;2024-02-21T09:53:29;99570.80;;;8.77;78.29
65872;BME280;52653;50.080;21.992;2024-02-21T09:56:03;99569.29;;;8.90;77.31
65872;BME280;52653;50.080;21.992;2024-02-21T09:58:36;99568.81;;;9.01;75.24
65872;BME280;52653;50.080;21.992;2024-02-21T10:01:08;99568.19;;;9.21;75.84
65872;BME280;52653;50.080;21.992;2024-02-21T10:03:55;99569.48;;;9.43;76.68
65872;BME280;52653;50.080;21.992;2024-02-21T10:06:29;99572.85;;;9.56;74.92
65872;BME280;52653;50.080;21.992;2024-02-21T10:09:01;99572.88;;;9.69;74.62
65872;BME280;52653;50.080;21.992;2024-02-21T10:11:34;99572.19;;;9.82;73.87
65872;BME280;52653;50.080;21.992;2024-02-21T10:14:08;99570.44;;;9.94;73.51
65872;BME280;52653;50.080;21.992;2024-02-21T10:16:40;99568.87;;;9.97;73.66
65872;BME280;52653;50.080;21.992;2024-02-21T10:19:19;99561.34;;;10.09;74.67
65872;BME280;52653;50.080;21.992;2024-02-21T10:22:05;99551.20;;;10.27;73.82
65872;BME280;52653;50.080;21.992;2024-02-21T10:24:39;99551.34;;;10.45;73.64
65872;BME280;52653;50.080;21.992;2024-02-21T10:27:12;99543.39;;;10.73;72.97
65872;BME280;52653;50.080;21.992;2024-02-21T10:29:50;99540.11;;;11.04;72.61
65872;BME280;52653;50.080;21.992;2024-02-21T10:32:23;99543.16;;;11.29;70.91
65872;BME280;52653;50.080;21.992;2024-02-21T10:35:04;99544.35;;;11.37;68.92
65872;BME280;52653;50.080;21.992;2024-02-21T10:37:36;99542.21;;;11.40;70.07
65872;BME280;52653;50.080;21.992;2024-02-21T10:40:10;99538.84;;;11.46;70.81
65872;BME280;52653;50.080;21.992;2024-02-21T10:42:43;99532.80;;;11.58;70.24
65872;BME280;52653;50.080;21.992;2024-02-21T10:45:16;99535.08;;;11.60;68.92
65872;BME280;52653;50.080;21.992;2024-02-21T10:47:55;99533.73;;;11.51;66.00
65872;BME280;52653;50.080;21.992;2024-02-21T10:50:29;99527.74;;;11.51;67.72
65872;BME280;52653;50.080;21.992;2024-02-21T10:53:20;99524.36;;;11.60;68.05
65872;BME280;52653;50.080;21.992;2024-02-21T10:56:01;99519.45;;;11.58;67.51
65872;BME280;52653;50.080;21.992;2024-02-21T10:58:43;99514.21;;;11.52;66.45
65872;BME280;52653;50.080;21.992;2024-02-21T11:01:16;99518.67;;;11.41;66.44
65872;BME280;52653;50.080;21.992;2024-02-21T11:03:51;99515.05;;;11.33;66.08
65872;BME280;52653;50.080;21.992;2024-02-21T11:06:26;99512.30;;;11.20;66.64
65872;BME280;52653;50.080;21.992;2024-02-21T11:09:04;99508.50;;;11.09;67.36
65872;BME280;52653;50.080;21.992;2024-02-21T11:11:37;99500.63;;;11.01;66.75
65872;BME280;52653;50.080;21.992;2024-02-21T11:14:17;99497.31;;;10.98;66.90
65872;BME280;52653;50.080;21.992;2024-02-21T11:16:50;99488.68;;;11.06;67.80
65872;BME280;52653;50.080;21.992;2024-02-21T11:19:23;99484.05;;;11.18;67.83
65872;BME280;52653;50.080;21.992;2024-02-21T11:21:56;99482.95;;;11.25;66.81
65872;BME280;52653;50.080;21.992;2024-02-21T11:24:34;99479.09;;;11.26;66.41
65872;BME280;52653;50.080;21.992;2024-02-21T11:27:13;99481.61;;;11.14;65.44
65872;BME280;52653;50.080;21.992;2024-02-21T11:29:46;99475.33;;;11.06;65.86
65872;BME280;52653;50.080;21.992;2024-02-21T11:32:20;99472.23;;;10.97;66.14
65872;BME280;52653;50.080;21.992;2024-02-21T11:34:57;99465.61;;;10.85;66.73
65872;BME280;52653;50.080;21.992;2024-02-21T11:37:34;99464.42;;;10.77;66.74
65872;BME280;52653;50.080;21.992;2024-02-21T11:40:09;99464.12;;;10.66;66.85
65872;BME280;52653;50.080;21.992;2024-02-21T11:42:43;99459.59;;;10.59;67.47
65872;BME280;52653;50.080;21.992;2024-02-21T11:45:17;99459.27;;;10.51;67.11
65872;BME280;52653;50.080;21.992;2024-02-21T11:47:51;99457.36;;;10.46;68.16
65872;BME280;52653;50.080;21.992;2024-02-21T11:50:23;99458.06;;;10.44;68.02
65872;BME280;52653;50.080;21.992;2024-02-21T11:52:57;99457.20;;;10.38;67.95
65872;BME280;52653;50.080;21.992;2024-02-21T11:55:29;99454.73;;;10.37;68.07
65872;BME280;52653;50.080;21.992;2024-02-21T11:58:01;99452.80;;;10.40;68.22
65872;BME280;52653;50.080;21.992;2024-02-21T12:00:34;99447.89;;;10.44;68.15
65872;BME280;52653;50.080;21.992;2024-02-21T12:03:07;99451.02;;;10.50;68.21
65872;BME280;52653;50.080;21.992;2024-02-21T12:05:39;99449.25;;;10.56;68.14
65872;BME280;52653;50.080;21.992;2024-02-21T12:08:14;99449.04;;;10.63;68.50
65872;BME280;52653;50.080;21.992;2024-02-21T12:10:47;99445.88;;;10.67;67.82
65872;BME280;52653;50.080;21.992;2024-02-21T12:13:25;99439.38;;;10.69;68.30
65872;BME280;52653;50.080;21.992;2024-02-21T12:15:57;99438.65;;;10.73;68.64
65872;BME280;52653;50.080;21.992;2024-02-21T12:18:29;99438.27;;;10.78;68.45
65872;BME280;52653;50.080;21.992;2024-02-21T12:21:02;99434.38;;;10.85;67.96
65872;BME280;52653;50.080;21.992;2024-02-21T12:23:34;99433.48;;;10.87;67.80
65872;BME280;52653;50.080;21.992;2024-02-21T12:26:06;99430.36;;;10.85;67.36
65872;BME280;52653;50.080;21.992;2024-02-21T12:28:39;99426.70;;;10.78;67.37
65872;BME280;52653;50.080;21.992;2024-02-21T12:31:11;99427.04;;;10.77;68.31
65872;BME280;52653;50.080;21.992;2024-02-21T12:33:44;99428.59;;;10.84;68.36
65872;BME280;52653;50.080;21.992;2024-02-21T12:36:16;99422.21;;;10.96;68.18
65872;BME280;52653;50.080;21.992;2024-02-21T12:38:48;99418.62;;;11.09;67.65
65872;BME280;52653;50.080;21.992;2024-02-21T12:41:21;99416.63;;;11.18;66.88
65872;BME280;52653;50.080;21.992;2024-02-21T12:43:53;99411.52;;;11.22;65.05
65872;BME280;52653;50.080;21.992;2024-02-21T12:46:25;99407.59;;;11.31;66.01
65872;BME280;52653;50.080;21.992;2024-02-21T12:48:57;99403.35;;;11.54;66.32
65872;BME280;52653;50.080;21.992;2024-02-21T12:51:30;99400.56;;;11.73;64.25
65872;BME280;52653;50.080;21.992;2024-02-21T12:54:02;99399.99;;;11.76;62.58
65872;BME280;52653;50.080;21.992;2024-02-21T12:56:35;99396.10;;;11.83;63.40
65872;BME280;52653;50.080;21.992;2024-02-21T12:59:07;99396.55;;;11.91;63.44
65872;BME280;52653;50.080;21.992;2024-02-21T13:01:40;99394.02;;;11.99;62.93
65872;BME280;52653;50.080;21.992;2024-02-21T13:04:13;99396.29;;;12.00;62.42
65872;BME280;52653;50.080;21.992;2024-02-21T13:06:45;99394.87;;;12.00;62.42
65872;BME280;52653;50.080;21.992;2024-02-21T13:09:17;99398.27;;;11.96;61.94
65872;BME280;52653;50.080;21.992;2024-02-21T13:11:50;99392.64;;;11.96;62.88
65872;BME280;52653;50.080;21.992;2024-02-21T13:14:24;99389.30;;;11.95;62.08
65872;BME280;52653;50.080;21.992;2024-02-21T13:16:56;99387.65;;;11.85;61.64
65872;BME280;52653;50.080;21.992;2024-02-21T13:19:28;99381.36;;;11.78;61.86
65872;BME280;52653;50.080;21.992;2024-02-21T13:22:01;99377.83;;;11.60;61.12
65872;BME280;52653;50.080;21.992;2024-02-21T13:24:33;99377.09;;;11.44;61.45
65872;BME280;52653;50.080;21.992;2024-02-21T13:27:06;99375.42;;;11.36;61.54